createdAt,value
2022-08-28T00:00:21.765Z,22.62
2022-08-28T00:03:11.451Z,22.68
2022-08-28T00:05:45.189Z,22.70
2022-08-28T00:08:18.234Z,22.65
2022-08-28T00:10:50.069Z,22.43
2022-08-28T00:13:25.558Z,22.33
2022-08-28T00:16:01.121Z,22.47
2022-08-28T00:18:33.584Z,22.46
2022-08-28T00:21:05.892Z,22.39
2022-08-28T00:23:43.036Z,22.38
2022-08-28T00:26:35.686Z,22.29
2022-08-28T00:29:08.343Z,22.21
2022-08-28T00:31:40.970Z,22.32
2022-08-28T00:34:13.240Z,22.25
2022-08-28T00:36:45.698Z,22.25
2022-08-28T00:39:16.449Z,22.26
2022-08-28T00:41:52.726Z,22.14
2022-08-28T00:44:30.694Z,22.14
2022-08-28T00:47:02.754Z,22.12
2022-08-28T00:49:38.668Z,22.20
2022-08-28T00:52:12.478Z,22.18
2022-08-28T00:54:58.440Z,22.06
2022-08-28T00:57:35.838Z,22.06
2022-08-28T01:00:12.668Z,22.10
2022-08-28T01:02:45.014Z,21.93
2022-08-28T01:05:16.469Z,22.10
2022-08-28T01:07:49.870Z,22.23
2022-08-28T01:10:27.760Z,22.16
2022-08-28T01:13:00.793Z,22.25
2022-08-28T01:15:37.032Z,22.17
2022-08-28T01:18:12.220Z,22.03
2022-08-28T01:20:47.960Z,22.04
2022-08-28T01:23:26.161Z,22.04
2022-08-28T01:26:00.195Z,21.80
2022-08-28T01:28:33.712Z,21.77
2022-08-28T01:31:05.526Z,21.75
2022-08-28T01:33:37.273Z,21.64
2022-08-28T01:36:14.325Z,21.70
2022-08-28T01:38:50.482Z,21.69
2022-08-28T01:41:22.242Z,21.67
2022-08-28T01:43:54.853Z,21.64
2022-08-28T01:46:26.792Z,21.51
2022-08-28T01:48:59.513Z,21.46
2022-08-28T01:51:35.275Z,21.50
2022-08-28T01:54:10.704Z,21.48
2022-08-28T01:56:45.910Z,21.50
2022-08-28T01:59:18.187Z,21.63
2022-08-28T02:01:49.941Z,21.45
2022-08-28T02:04:23.120Z,21.46
2022-08-28T02:07:04.371Z,21.36
2022-08-28T02:09:36.127Z,21.37
2022-08-28T02:12:10.892Z,21.48
2022-08-28T02:14:43.559Z,21.43
2022-08-28T02:17:15.337Z,21.34
2022-08-28T02:19:47.153Z,20.99
2022-08-28T02:22:18.914Z,21.08
2022-08-28T02:24:50.602Z,21.14
2022-08-28T02:27:22.456Z,21.07
2022-08-28T02:29:55.540Z,21.01
2022-08-28T02:32:25.775Z,21.02
2022-08-28T02:34:58.120Z,20.91
2022-08-28T02:37:29.857Z,20.84
2022-08-28T02:40:01.834Z,20.85
2022-08-28T02:42:33.836Z,20.98
2022-08-28T02:45:06.474Z,20.83
2022-08-28T02:47:38.103Z,20.84
2022-08-28T02:50:13.034Z,20.83
2022-08-28T02:52:45.181Z,20.69
2022-08-28T02:55:19.282Z,20.71
2022-08-28T02:57:51.490Z,20.69
2022-08-28T03:00:25.441Z,20.62
2022-08-28T03:02:57.228Z,20.65
2022-08-28T03:05:28.915Z,20.72
2022-08-28T03:08:00.848Z,20.81
2022-08-28T03:10:33.262Z,20.82
2022-08-28T03:13:06.081Z,20.69
2022-08-28T03:15:38.337Z,20.91
2022-08-28T03:18:11.306Z,20.76
2022-08-28T03:20:43.821Z,20.75
2022-08-28T03:23:28.038Z,20.80
2022-08-28T03:26:02.384Z,20.71
2022-08-28T03:28:38.365Z,20.94
2022-08-28T03:31:11.808Z,20.76
2022-08-28T03:33:44.521Z,20.53
2022-08-28T03:36:19.096Z,20.57
2022-08-28T03:38:51.469Z,20.49
2022-08-28T03:41:25.050Z,20.52
2022-08-28T03:43:58.069Z,20.68
2022-08-28T03:46:32.954Z,20.61
2022-08-28T03:49:06.456Z,20.75
2022-08-28T03:51:38.320Z,20.55
2022-08-28T03:54:10.058Z,20.43
2022-08-28T03:56:43.648Z,20.32
2022-08-28T03:59:15.694Z,20.34
2022-08-28T04:01:47.545Z,20.50
2022-08-28T04:04:19.381Z,20.44
2022-08-28T04:06:51.189Z,20.43
2022-08-28T04:09:22.903Z,20.62
2022-08-28T04:11:55.293Z,20.61
2022-08-28T04:14:27.093Z,20.45
2022-08-28T04:17:01.516Z,20.41
2022-08-28T04:19:33.641Z,20.40
2022-08-28T04:22:05.520Z,20.43
2022-08-28T04:24:37.196Z,20.33
2022-08-28T04:27:08.936Z,20.20
2022-08-28T04:29:40.609Z,20.20
2022-08-28T04:32:12.649Z,20.31
2022-08-28T04:34:44.506Z,20.30
2022-08-28T04:37:16.217Z,20.39
2022-08-28T04:39:47.899Z,20.29
2022-08-28T04:42:19.872Z,20.31
2022-08-28T04:44:51.684Z,20.19
2022-08-28T04:47:23.627Z,20.05
2022-08-28T04:49:55.896Z,19.98
2022-08-28T04:52:27.831Z,20.02
2022-08-28T04:54:59.818Z,20.10
2022-08-28T04:57:36.098Z,20.08
2022-08-28T05:00:11.703Z,20.24
2022-08-28T05:02:43.585Z,20.04
2022-08-28T05:05:15.351Z,20.17
2022-08-28T05:07:48.288Z,20.14
2022-08-28T05:10:20.310Z,20.19
2022-08-28T05:12:52.056Z,20.26
2022-08-28T05:15:23.853Z,20.11
2022-08-28T05:17:55.847Z,20.04
2022-08-28T05:20:27.951Z,20.09
2022-08-28T05:22:59.657Z,20.15
2022-08-28T05:25:32.960Z,20.31
2022-08-28T05:28:06.026Z,20.36
2022-08-28T05:30:43.441Z,20.58
2022-08-28T05:33:16.965Z,20.50
2022-08-28T05:35:49.312Z,20.34
2022-08-28T05:38:21.291Z,20.52
2022-08-28T05:40:53.449Z,20.65
2022-08-28T05:43:25.889Z,20.66
2022-08-28T05:46:01.271Z,20.72
2022-08-28T05:48:37.119Z,20.41
2022-08-28T05:51:14.491Z,20.42
2022-08-28T05:53:49.771Z,20.44
2022-08-28T05:56:24.637Z,20.52
2022-08-28T05:58:56.469Z,20.49
2022-08-28T06:01:30.282Z,20.50
2022-08-28T06:04:05.884Z,20.63
2022-08-28T06:06:39.518Z,20.56
2022-08-28T06:09:13.937Z,20.67
2022-08-28T06:11:47.442Z,20.54
2022-08-28T06:14:21.870Z,20.59
2022-08-28T06:16:55.673Z,20.80
2022-08-28T06:19:30.787Z,20.76
2022-08-28T06:22:07.538Z,20.83
2022-08-28T06:24:40.570Z,20.74
2022-08-28T06:27:12.925Z,20.80
2022-08-28T06:29:44.722Z,20.85
2022-08-28T06:32:16.676Z,20.93
2022-08-28T06:34:48.645Z,20.99
2022-08-28T06:37:20.565Z,20.91
2022-08-28T06:39:52.466Z,20.97
2022-08-28T06:42:25.247Z,20.98
2022-08-28T06:44:57.860Z,21.09
2022-08-28T06:47:29.623Z,21.09
2022-08-28T06:50:01.619Z,21.11
2022-08-28T06:52:33.893Z,21.06
2022-08-28T06:55:07.289Z,21.14
2022-08-28T06:57:37.512Z,21.26
2022-08-28T07:00:12.879Z,21.33
2022-08-28T07:02:44.785Z,21.28
2022-08-28T07:05:17.117Z,21.43
2022-08-28T07:07:49.085Z,21.57
2022-08-28T07:10:21.296Z,21.60
2022-08-28T07:12:53.431Z,21.67
2022-08-28T07:15:25.485Z,21.50
2022-08-28T07:17:58.225Z,21.41
2022-08-28T07:20:30.031Z,21.37
2022-08-28T07:23:01.907Z,21.42
2022-08-28T07:25:33.947Z,21.40
2022-08-28T07:28:06.115Z,21.57
2022-08-28T07:30:40.486Z,21.70
2022-08-28T07:33:12.674Z,21.74
2022-08-28T07:35:47.088Z,21.99
2022-08-28T07:38:18.894Z,21.96
2022-08-28T07:40:50.614Z,21.91
2022-08-28T07:43:40.345Z,21.79
2022-08-28T07:46:12.839Z,21.87
2022-08-28T07:48:48.053Z,21.99
2022-08-28T07:51:19.884Z,21.91
2022-08-28T07:53:52.416Z,22.02
2022-08-28T07:56:24.243Z,22.04
2022-08-28T07:58:56.827Z,22.07
2022-08-28T08:01:30.898Z,22.17
2022-08-28T08:04:03.386Z,22.19
2022-08-28T08:06:35.885Z,22.24
2022-08-28T08:09:12.122Z,22.30
2022-08-28T08:11:44.843Z,22.18
2022-08-28T08:14:18.373Z,22.30
2022-08-28T08:16:50.452Z,22.41
2022-08-28T08:19:22.212Z,22.50
2022-08-28T08:21:55.353Z,22.62
2022-08-28T08:24:30.266Z,22.61
2022-08-28T08:27:03.544Z,22.50
2022-08-28T08:29:37.972Z,22.64
2022-08-28T08:32:11.781Z,22.71
2022-08-28T08:34:46.712Z,22.93
2022-08-28T08:37:18.563Z,22.82
2022-08-28T08:39:50.897Z,22.84
2022-08-28T08:42:30.416Z,22.95
2022-08-28T08:45:04.689Z,22.92
2022-08-28T08:47:41.849Z,22.94
2022-08-28T08:50:17.797Z,22.92
2022-08-28T08:53:03.659Z,22.89
2022-08-28T08:55:38.105Z,22.83
2022-08-28T08:58:14.777Z,22.90
2022-08-28T09:00:58.671Z,23.04
2022-08-28T09:03:54.521Z,23.19
2022-08-28T09:06:36.789Z,23.16
2022-08-28T09:09:18.149Z,23.10
2022-08-28T09:11:57.122Z,23.05
2022-08-28T09:14:38.267Z,23.08
2022-08-28T09:17:12.506Z,23.13
2022-08-28T09:19:44.611Z,23.28
2022-08-28T09:22:17.116Z,23.39
2022-08-28T09:24:48.941Z,23.36
2022-08-28T09:27:28.096Z,23.26
2022-08-28T09:30:08.096Z,23.40
2022-08-28T09:32:43.892Z,23.44
2022-08-28T09:35:27.178Z,23.41
2022-08-28T09:38:17.532Z,23.48
2022-08-28T09:41:07.291Z,23.54
2022-08-28T09:43:45.688Z,23.64
2022-08-28T09:46:25.456Z,23.55
2022-08-28T09:49:12.008Z,23.52
2022-08-28T09:51:44.294Z,23.57
2022-08-28T09:54:23.676Z,23.69
2022-08-28T09:56:56.155Z,23.58
2022-08-28T09:59:30.107Z,23.58
2022-08-28T10:02:14.613Z,23.66
2022-08-28T10:04:59.218Z,23.69
2022-08-28T10:07:41.251Z,23.79
2022-08-28T10:10:23.118Z,23.82
2022-08-28T10:13:07.132Z,23.75
2022-08-28T10:15:57.199Z,23.75
2022-08-28T10:18:39.408Z,23.80
2022-08-28T10:21:26.920Z,23.80
2022-08-28T10:27:22.660Z,23.83
2022-08-28T10:30:06.777Z,23.91
2022-08-28T10:33:00.032Z,23.97
2022-08-28T10:35:43.232Z,23.98
2022-08-28T10:38:18.733Z,24.09
2022-08-28T10:40:56.855Z,23.98
2022-08-28T10:43:34.825Z,23.85
2022-08-28T10:46:13.574Z,23.90
2022-08-28T10:48:50.659Z,23.85
2022-08-28T10:51:35.212Z,23.91
2022-08-28T10:54:23.121Z,23.87
2022-08-28T10:56:59.536Z,23.91
2022-08-28T10:59:33.772Z,23.96
2022-08-28T11:02:16.724Z,24.00
2022-08-28T11:04:49.363Z,24.05
2022-08-28T11:07:30.405Z,24.02
2022-08-28T11:10:21.645Z,24.17
2022-08-28T11:12:54.465Z,24.14
2022-08-28T11:15:50.271Z,24.04
2022-08-28T11:19:01.999Z,24.08
2022-08-28T11:21:43.206Z,24.15
2022-08-28T11:24:29.408Z,24.23
2022-08-28T11:27:16.875Z,24.20
2022-08-28T11:30:16.269Z,24.11
2022-08-28T11:33:03.365Z,24.14
2022-08-28T11:35:47.159Z,24.19
2022-08-28T11:39:02.959Z,24.20
2022-08-28T11:41:38.414Z,24.27
2022-08-28T11:44:41.455Z,24.34
2022-08-28T11:47:39.510Z,24.45
2022-08-28T11:50:34.264Z,24.42
2022-08-28T11:53:34.860Z,24.59
2022-08-28T11:56:37.141Z,24.36
2022-08-28T11:59:24.916Z,24.27
2022-08-28T12:02:43.273Z,24.27
2022-08-28T12:05:42.721Z,24.27
2022-08-28T12:09:09.101Z,24.26
2022-08-28T12:11:57.666Z,24.26
2022-08-28T12:15:03.877Z,24.17
2022-08-28T12:17:57.157Z,24.16
2022-08-28T12:20:41.047Z,24.19
2022-08-28T12:23:38.426Z,24.17
2022-08-28T12:26:19.118Z,24.10
2022-08-28T12:28:53.787Z,24.13
2022-08-28T12:32:11.357Z,24.07
2022-08-28T12:34:51.067Z,24.13
2022-08-28T12:37:39.423Z,24.12
2022-08-28T12:40:29.493Z,24.22
2022-08-28T12:43:05.808Z,24.35
2022-08-28T12:45:41.839Z,24.25
2022-08-28T12:48:22.381Z,24.16
2022-08-28T12:51:03.255Z,24.20
2022-08-28T12:53:45.190Z,24.21
2022-08-28T12:56:20.006Z,24.28
2022-08-28T12:58:52.037Z,24.18
2022-08-28T13:01:32.527Z,24.17
2022-08-28T13:04:19.074Z,24.27
2022-08-28T13:06:58.281Z,24.20
2022-08-28T13:09:35.369Z,24.16
2022-08-28T13:12:07.869Z,24.15
2022-08-28T13:14:43.186Z,24.31
2022-08-28T13:17:17.447Z,24.45
2022-08-28T13:20:05.407Z,24.38
2022-08-28T13:22:40.455Z,24.49
2022-08-28T13:25:21.017Z,24.48
2022-08-28T13:28:01.458Z,24.52
2022-08-28T13:30:35.567Z,24.55
2022-08-28T13:33:22.903Z,24.57
2022-08-28T13:35:56.615Z,24.56
2022-08-28T13:38:28.930Z,24.59
2022-08-28T13:41:06.163Z,24.43
2022-08-28T13:43:48.585Z,24.35
2022-08-28T13:46:20.963Z,24.31
2022-08-28T13:48:53.493Z,24.34
2022-08-28T13:51:26.916Z,24.25
2022-08-28T13:53:59.097Z,24.39
2022-08-28T13:56:33.153Z,24.48
2022-08-28T13:59:05.434Z,24.59
2022-08-28T14:01:57.132Z,24.51
2022-08-28T14:04:28.918Z,24.39
2022-08-28T14:07:00.629Z,24.32
2022-08-28T14:09:32.492Z,24.33
2022-08-28T14:12:06.056Z,24.35
2022-08-28T14:14:41.480Z,24.41
2022-08-28T14:17:14.178Z,24.47
2022-08-28T14:19:44.342Z,24.40
2022-08-28T14:22:17.516Z,24.43
2022-08-28T14:24:49.472Z,24.39
2022-08-28T14:27:22.129Z,24.32
2022-08-28T14:29:54.463Z,24.36
2022-08-28T14:32:26.145Z,24.26
2022-08-28T14:34:58.296Z,24.27
2022-08-28T14:37:30.694Z,24.29
2022-08-28T14:40:03.206Z,24.11
2022-08-28T14:42:33.366Z,23.98
2022-08-28T14:45:07.101Z,23.90
2022-08-28T14:47:39.660Z,23.98
2022-08-28T14:50:10.871Z,23.92
2022-08-28T14:52:43.941Z,23.87
2022-08-28T14:55:18.641Z,23.89
2022-08-28T14:57:51.785Z,23.71
2022-08-28T15:00:22.463Z,23.76
2022-08-28T15:02:59.829Z,23.76
2022-08-28T15:05:32.240Z,23.83
2022-08-28T15:08:07.839Z,23.84
2022-08-28T15:10:42.851Z,23.89
2022-08-28T15:13:15.830Z,23.92
2022-08-28T15:15:48.580Z,24.28
2022-08-28T15:18:20.976Z,24.24
2022-08-28T15:20:53.833Z,24.07
2022-08-28T15:23:25.886Z,23.91
2022-08-28T15:25:57.872Z,23.85
2022-08-28T15:28:29.946Z,23.72
2022-08-28T15:31:01.737Z,23.62
2022-08-28T15:33:33.753Z,23.55
2022-08-28T15:36:06.567Z,23.53
2022-08-28T15:38:52.217Z,23.41
2022-08-28T15:41:27.550Z,23.29
2022-08-28T15:44:01.776Z,23.29
2022-08-28T15:46:36.035Z,23.22
2022-08-28T15:49:09.247Z,23.24
2022-08-28T15:51:41.392Z,23.33
2022-08-28T15:54:13.746Z,23.22
2022-08-28T15:56:45.664Z,23.22
2022-08-28T15:59:20.973Z,23.16
2022-08-28T16:01:54.421Z,23.06
2022-08-28T16:04:26.599Z,23.02
2022-08-28T16:07:00.675Z,23.13
2022-08-28T16:09:32.852Z,23.11
2022-08-28T16:12:04.885Z,23.11
2022-08-28T16:14:36.708Z,23.00
2022-08-28T16:17:10.751Z,22.99
2022-08-28T16:19:44.281Z,22.98
2022-08-28T16:22:17.225Z,23.11
2022-08-28T16:24:50.799Z,22.88
2022-08-28T16:27:22.503Z,22.91
2022-08-28T16:29:54.853Z,22.89
2022-08-28T16:32:26.925Z,22.78
2022-08-28T16:34:59.478Z,22.82
2022-08-28T16:37:39.570Z,22.78
2022-08-28T16:40:14.916Z,22.86
2022-08-28T16:42:51.445Z,22.96
2022-08-28T16:45:24.512Z,22.86
2022-08-28T16:47:56.439Z,22.79
2022-08-28T16:50:31.708Z,22.70
2022-08-28T16:53:06.788Z,22.82
2022-08-28T16:55:40.491Z,22.79
2022-08-28T16:58:16.683Z,22.75
2022-08-28T17:00:52.764Z,22.63
2022-08-28T17:03:26.967Z,22.68
2022-08-28T17:06:03.145Z,22.59
2022-08-28T17:08:35.087Z,22.63
2022-08-28T17:11:07.700Z,22.47
2022-08-28T17:13:37.899Z,22.45
2022-08-28T17:16:10.624Z,22.47
2022-08-28T17:18:48.181Z,22.41
2022-08-28T17:21:42.809Z,22.31
2022-08-28T17:24:14.632Z,22.25
2022-08-28T17:26:47.004Z,22.24
2022-08-28T17:29:18.963Z,22.19
2022-08-28T17:31:51.004Z,22.15
2022-08-28T17:34:25.754Z,22.11
2022-08-28T17:37:01.483Z,22.04
2022-08-28T17:39:33.673Z,22.11
2022-08-28T17:42:07.474Z,22.02
2022-08-28T17:44:40.079Z,21.98
2022-08-28T17:47:12.390Z,22.02
2022-08-28T17:49:44.473Z,22.01
2022-08-28T17:52:16.416Z,21.90
2022-08-28T17:54:48.172Z,21.85
2022-08-28T17:57:19.993Z,21.89
2022-08-28T17:59:51.877Z,21.76
2022-08-28T18:02:23.649Z,21.59
2022-08-28T18:04:55.694Z,21.62
2022-08-28T18:07:27.526Z,21.54
2022-08-28T18:09:59.595Z,21.57
2022-08-28T18:12:31.534Z,21.63
2022-08-28T18:15:04.788Z,21.59
2022-08-28T18:17:38.394Z,21.47
2022-08-28T18:20:12.555Z,21.48
2022-08-28T18:22:44.501Z,21.58
2022-08-28T18:25:31.343Z,21.46
2022-08-28T18:28:03.950Z,21.37
2022-08-28T18:30:36.885Z,21.37
2022-08-28T18:33:25.249Z,21.40
2022-08-28T18:35:57.089Z,21.23
2022-08-28T18:38:34.857Z,21.23
2022-08-28T18:41:08.335Z,21.22
2022-08-28T18:43:40.806Z,21.22
2022-08-28T18:46:14.354Z,21.19
2022-08-28T18:48:47.177Z,21.14
2022-08-28T18:51:21.234Z,21.04
2022-08-28T18:53:53.582Z,21.04
2022-08-28T18:56:25.237Z,21.06
2022-08-28T18:59:03.833Z,21.07
2022-08-28T19:01:35.996Z,20.94
2022-08-28T19:04:06.694Z,21.08
2022-08-28T19:06:38.481Z,21.18
2022-08-28T19:09:11.646Z,21.07
2022-08-28T19:11:52.300Z,21.07
2022-08-28T19:14:24.409Z,21.12
2022-08-28T19:16:56.977Z,21.10
2022-08-28T19:19:29.387Z,21.01
2022-08-28T19:22:01.957Z,20.93
2022-08-28T19:24:33.831Z,20.89
2022-08-28T19:27:06.144Z,20.93
2022-08-28T19:29:38.130Z,20.90
2022-08-28T19:32:10.681Z,20.83
2022-08-28T19:34:43.667Z,20.85
2022-08-28T19:37:16.449Z,20.76
2022-08-28T19:39:56.045Z,20.66
2022-08-28T19:42:29.020Z,20.71
2022-08-28T19:45:00.124Z,20.84
2022-08-28T19:47:35.756Z,20.88
2022-08-28T19:50:10.055Z,20.84
2022-08-28T19:52:43.295Z,20.79
2022-08-28T19:55:19.193Z,20.76
2022-08-28T19:57:51.312Z,20.68
2022-08-28T20:00:25.280Z,20.57
2022-08-28T20:02:57.801Z,20.65
2022-08-28T20:05:29.945Z,20.56
2022-08-28T20:08:02.064Z,20.60
2022-08-28T20:10:33.872Z,20.61
2022-08-28T20:13:05.632Z,20.60
2022-08-28T20:15:37.583Z,20.58
2022-08-28T20:18:09.808Z,20.58
2022-08-28T20:20:44.517Z,20.58
2022-08-28T20:23:16.911Z,20.58
2022-08-28T20:25:51.730Z,20.58
2022-08-28T20:28:23.356Z,20.69
2022-08-28T20:30:55.078Z,20.66
2022-08-28T20:33:27.117Z,20.64
2022-08-28T20:36:04.657Z,20.57
2022-08-28T20:38:37.921Z,20.55
2022-08-28T20:41:12.552Z,20.69
2022-08-28T20:43:46.347Z,20.69
2022-08-28T20:46:19.840Z,20.73
2022-08-28T20:48:51.832Z,20.70
2022-08-28T20:51:45.521Z,20.83
2022-08-28T20:54:17.312Z,20.75
2022-08-28T20:56:49.152Z,20.75
2022-08-28T20:59:22.427Z,20.70
2022-08-28T21:01:55.469Z,20.63
2022-08-28T21:04:28.502Z,20.64
2022-08-28T21:07:00.730Z,20.61
2022-08-28T21:09:35.865Z,20.70
2022-08-28T21:12:24.706Z,20.68
2022-08-28T21:14:57.039Z,20.68
2022-08-28T21:17:30.682Z,20.58
2022-08-28T21:20:08.317Z,20.69
2022-08-28T21:22:40.773Z,20.71
2022-08-28T21:25:15.401Z,20.63
2022-08-28T21:27:47.931Z,20.61
2022-08-28T21:30:21.986Z,20.54
2022-08-28T21:32:54.359Z,20.62
2022-08-28T21:35:26.119Z,20.58
2022-08-28T21:37:57.828Z,20.55
2022-08-28T21:40:29.528Z,20.61
2022-08-28T21:43:01.186Z,20.50
2022-08-28T21:45:32.911Z,20.56
2022-08-28T21:48:05.121Z,20.50
2022-08-28T21:50:36.853Z,20.51
2022-08-28T21:53:08.618Z,20.46
2022-08-28T21:55:40.861Z,20.45
2022-08-28T21:58:12.670Z,20.36
2022-08-28T22:00:49.677Z,20.44
2022-08-28T22:03:22.586Z,20.36
2022-08-28T22:05:55.511Z,20.40
2022-08-28T22:08:28.644Z,20.35
2022-08-28T22:11:00.372Z,20.40
2022-08-28T22:13:32.235Z,20.31
2022-08-28T22:16:04.545Z,20.26
2022-08-28T22:18:36.639Z,20.20
2022-08-28T22:21:29.294Z,20.11
2022-08-28T22:24:01.448Z,20.11
2022-08-28T22:26:33.305Z,20.16
2022-08-28T22:29:05.860Z,20.06
2022-08-28T22:31:36.709Z,20.18
2022-08-28T22:34:13.038Z,20.13
2022-08-28T22:36:44.705Z,20.14
2022-08-28T22:39:16.473Z,20.11
2022-08-28T22:41:48.399Z,20.03
2022-08-28T22:44:22.003Z,19.94
2022-08-28T22:46:53.740Z,19.90
2022-08-28T22:49:26.184Z,19.83
2022-08-28T22:51:58.282Z,19.80
2022-08-28T22:54:30.302Z,19.81
2022-08-28T22:57:02.081Z,19.77
2022-08-28T22:59:33.877Z,19.83
2022-08-28T23:02:06.577Z,19.76
2022-08-28T23:04:36.698Z,19.65
2022-08-28T23:07:08.533Z,19.65
2022-08-28T23:09:40.516Z,19.82
2022-08-28T23:12:12.430Z,19.92
2022-08-28T23:14:48.252Z,19.84
2022-08-28T23:17:21.226Z,19.79
2022-08-28T23:19:52.919Z,19.71
2022-08-28T23:22:24.729Z,19.54
2022-08-28T23:24:56.370Z,19.53
2022-08-28T23:27:36.281Z,19.55
2022-08-28T23:30:10.465Z,19.54
2022-08-28T23:32:42.296Z,19.52
2022-08-28T23:35:16.518Z,19.53
2022-08-28T23:37:51.982Z,19.46
2022-08-28T23:40:28.147Z,19.47
2022-08-28T23:43:02.881Z,19.52
2022-08-28T23:45:35.131Z,19.57
2022-08-28T23:48:07.264Z,19.55
2022-08-28T23:50:40.854Z,19.42
2022-08-28T23:53:13.122Z,19.49
2022-08-28T23:55:44.801Z,19.52
2022-08-28T23:58:16.765Z,19.54
